Time;durP1;ratioP1;P1;durP2;ratioP2;P2;SDS_P1;SDS_P2;PMS_P1;PMS_P2;Temp;Humidity;BMP_temperature;BMP_pressure;BME280_temperature;BME280_humidity;BME280_pressure;Samples;Min_cycle;Max_cycle;Signal;HPM_P1;HPM_P2
2021/08/26 00:00:45;;;;;;;2.50;0.20;;;;;;;12.99;62.74;100632.59;4849538;29;20089;-84
2021/08/26 00:05:55;;;;;;;0.98;0.20;;;;;;;13.17;62.33;100684.00;4849210;29;20125;-85
2021/08/26 00:08:22;;;;;;;2.72;0.20;;;;;;;13.45;63.27;100727.91;4849278;29;20043;-85
2021/08/26 00:10:52;;;;;;;1.90;0.28;;;;;;;13.40;61.56;100720.44;4851635;29;20040;-84
2021/08/26 00:13:20;;;;;;;2.35;0.20;;;;;;;14.17;61.94;100855.44;4868024;29;20114;-84
2021/08/26 00:15:46;;;;;;;0.60;0.10;;;;;;;14.06;62.05;100843.47;4863733;29;20012;-84
2021/08/26 00:18:12;;;;;;;0.15;0.10;;;;;;;13.97;62.89;100856.47;4866541;29;20026;-85
2021/08/26 00:20:38;;;;;;;1.60;0.35;;;;;;;13.92;62.02;100836.53;4863498;29;20041;-83
2021/08/26 00:23:04;;;;;;;0.10;0.10;;;;;;;13.83;61.69;100847.59;4864493;29;20006;-84
2021/08/26 00:25:30;;;;;;;1.90;0.20;;;;;;;13.85;62.00;100842.81;4849547;29;20035;-84
2021/08/26 00:27:55;;;;;;;0.40;0.10;;;;;;;13.92;62.22;100853.59;4847820;29;20564;-85
2021/08/26 00:30:21;;;;;;;0.45;0.20;;;;;;;13.84;61.38;100832.19;4833539;29;20030;-83
2021/08/26 00:32:46;;;;;;;0.25;0.10;;;;;;;13.90;62.11;100855.66;4848589;29;20029;-84
2021/08/26 00:35:12;;;;;;;0.22;0.10;;;;;;;13.79;60.91;100848.28;4829748;29;20014;-83
2021/08/26 00:37:37;;;;;;;0.40;0.22;;;;;;;13.86;61.92;100843.63;4845347;29;20018;-85
2021/08/26 00:40:04;;;;;;;0.47;0.10;;;;;;;13.80;62.53;100855.34;4857904;29;20025;-84
2021/08/26 00:42:29;;;;;;;3.03;0.25;;;;;;;13.80;61.15;100858.03;4866556;29;20081;-84
2021/08/26 00:44:55;;;;;;;0.88;0.20;;;;;;;13.86;61.62;100858.00;4865120;29;20029;-84
2021/08/26 00:47:26;;;;;;;0.95;0.13;;;;;;;13.81;60.69;100859.72;4866452;29;20038;-84
2021/08/26 00:49:56;;;;;;;1.23;0.20;;;;;;;13.82;60.69;100834.31;4851367;29;20047;-84
2021/08/26 00:52:23;;;;;;;1.73;0.20;;;;;;;13.83;61.12;100871.94;4815718;29;20011;-84
2021/08/26 00:54:49;;;;;;;3.10;0.32;;;;;;;13.86;61.58;100849.06;4830337;29;20027;-84
2021/08/26 00:57:15;;;;;;;0.80;0.20;;;;;;;13.74;60.17;100848.09;4830039;29;20015;-82
2021/08/26 00:59:41;;;;;;;5.85;0.22;;;;;;;13.82;60.14;100858.66;4833466;29;20064;-84
2021/08/26 01:02:16;;;;;;;2.15;0.20;;;;;;;13.88;60.94;100862.38;4863420;29;20038;-85
2021/08/26 01:04:50;;;;;;;0.52;0.20;;;;;;;13.98;60.55;100852.72;4850672;29;20041;-82
2021/08/26 01:07:31;;;;;;;0.70;0.20;;;;;;;13.91;60.49;100851.94;4848053;29;20056;-83
2021/08/26 01:10:05;;;;;;;0.15;0.10;;;;;;;13.83;60.82;100841.38;4861073;29;20065;-84
2021/08/26 01:12:31;;;;;;;;;;;;;;;13.85;60.00;100839.28;4866834;29;20057;-83
2021/08/26 01:14:58;;;;;;;0.55;0.20;;;;;;;13.91;60.41;100835.72;4844950;29;19912;-85
2021/08/26 01:17:27;;;;;;;0.30;0.20;;;;;;;13.91;60.35;100854.63;4847944;29;20051;-85
2021/08/26 01:19:54;;;;;;;2.40;0.20;;;;;;;13.76;60.82;100841.41;4846703;29;20026;-84
2021/08/26 01:22:21;;;;;;;0.73;0.20;;;;;;;13.67;60.07;100856.25;4847871;29;20037;-82
2021/08/26 01:25:11;;;;;;;0.32;0.10;;;;;;;13.60;60.39;100826.56;4831178;29;20026;-83
2021/08/26 01:27:49;;;;;;;2.45;0.28;;;;;;;13.69;59.61;100858.75;4846997;29;20023;-83
2021/08/26 01:30:18;;;;;;;1.75;0.30;;;;;;;13.55;60.49;100845.31;4843053;29;20034;-82
2021/08/26 01:32:47;;;;;;;2.00;0.30;;;;;;;13.63;60.65;100847.75;4845269;29;20116;-82
2021/08/26 01:35:13;;;;;;;1.58;0.30;;;;;;;13.73;60.21;100849.97;4863288;29;20124;-83
2021/08/26 01:37:39;;;;;;;2.17;0.30;;;;;;;13.67;60.12;100836.50;4859655;29;20071;-83
2021/08/26 01:40:06;;;;;;;0.40;0.20;;;;;;;13.81;60.34;100854.31;4859680;29;20029;-83
2021/08/26 01:42:31;;;;;;;0.45;0.38;;;;;;;13.70;60.66;100863.09;4858875;29;20092;-83
2021/08/26 01:44:57;;;;;;;2.05;0.20;;;;;;;13.78;61.00;100868.25;4855219;29;20014;-84
2021/08/26 01:47:23;;;;;;;1.83;0.50;;;;;;;13.58;59.97;100854.88;4848496;29;20066;-85
2021/08/26 01:52:24;;;;;;;0.93;0.40;;;;;;;12.05;60.26;100636.00;5194750;23;20051;-82
2021/08/26 01:54:54;;;;;;;0.90;0.30;;;;;;;12.40;60.72;100698.56;4856319;29;20060;-84
2021/08/26 01:59:59;;;;;;;0.30;0.30;;;;;;;12.64;60.14;100711.31;5318594;24;20042;-84
2021/08/26 02:02:25;;;;;;;0.60;0.30;;;;;;;13.57;60.92;100867.53;4846344;29;20018;-84
2021/08/26 02:04:50;;;;;;;1.65;0.35;;;;;;;12.23;60.96;100685.53;4861660;29;20053;-84
2021/08/26 02:07:19;;;;;;;0.68;0.30;;;;;;;12.25;61.43;100679.09;4846147;29;20018;-84
2021/08/26 02:09:46;;;;;;;0.30;0.30;;;;;;;12.54;60.80;100731.72;4847312;29;20078;-85
2021/08/26 02:12:11;;;;;;;0.40;0.30;;;;;;;12.12;61.58;100653.84;4846715;29;20048;-84
2021/08/26 02:14:37;;;;;;;0.45;0.30;;;;;;;12.08;61.09;100673.34;4831082;29;20043;-84
2021/08/26 02:17:04;;;;;;;0.30;0.30;;;;;;;11.84;59.56;100643.34;4848150;29;20034;-83
2021/08/26 02:19:30;;;;;;;1.95;0.30;;;;;;;11.68;60.39;100620.31;4846642;29;20022;-85
2021/08/26 02:21:57;;;;;;;1.92;0.40;;;;;;;12.19;60.79;100673.53;4846996;29;20023;-84
2021/08/26 02:24:23;;;;;;;1.42;0.30;;;;;;;12.42;60.51;100705.41;4846366;29;20011;-85
2021/08/26 02:26:49;;;;;;;0.75;0.25;;;;;;;11.84;61.15;100637.09;4847602;29;20026;-84
2021/08/26 02:29:14;;;;;;;0.45;0.30;;;;;;;11.86;61.47;100626.97;4844377;29;20058;-84
2021/08/26 02:31:40;;;;;;;0.38;0.20;;;;;;;12.79;61.15;100783.97;4848405;29;20068;-84
2021/08/26 02:34:06;;;;;;;0.43;0.30;;;;;;;13.34;61.70;100878.91;4847272;29;20018;-85
2021/08/26 02:36:32;;;;;;;0.50;0.30;;;;;;;12.61;60.86;100798.13;4861869;29;20089;-84
2021/08/26 02:38:58;;;;;;;3.25;0.40;;;;;;;13.17;61.77;100869.59;4845637;29;20117;-85
2021/08/26 02:41:24;;;;;;;1.52;0.40;;;;;;;11.80;61.22;100641.25;4846393;29;20097;-84
2021/08/26 02:43:51;;;;;;;0.50;0.35;;;;;;;12.80;61.08;100814.47;4847173;29;20023;-84
2021/08/26 02:46:17;;;;;;;3.03;0.80;;;;;;;13.20;61.35;100863.75;4832411;29;20014;-84
2021/08/26 02:48:42;;;;;;;1.27;0.55;;;;;;;12.97;61.71;100818.34;4832741;29;20201;-84
2021/08/26 02:51:08;;;;;;;1.67;0.30;;;;;;;13.06;62.25;100872.97;4864418;29;20026;-84
2021/08/26 02:53:33;;;;;;;2.80;0.40;;;;;;;13.10;62.41;100864.22;4819871;29;20074;-84
2021/08/26 02:55:59;;;;;;;0.73;0.28;;;;;;;13.04;62.24;100856.97;4850423;29;20030;-83
2021/08/26 02:58:25;;;;;;;3.25;0.43;;;;;;;13.20;62.14;100854.84;4843977;29;20038;-83
2021/08/26 03:00:51;;;;;;;3.05;0.40;;;;;;;13.10;62.96;100872.31;4850570;29;20053;-83
2021/08/26 03:03:17;;;;;;;1.50;0.50;;;;;;;13.14;62.71;100870.88;4850587;29;20031;-84
2021/08/26 03:05:42;;;;;;;1.42;0.30;;;;;;;13.12;61.24;100894.56;4820664;29;20118;-83
2021/08/26 03:08:08;;;;;;;2.05;0.50;;;;;;;13.06;61.61;100846.78;4847255;29;20044;-84
2021/08/26 03:10:33;;;;;;;0.80;0.47;;;;;;;12.98;61.93;100835.38;4846889;29;20027;-84
2021/08/26 03:12:59;;;;;;;0.70;0.47;;;;;;;13.09;62.40;100869.84;4845681;29;20021;-84
2021/08/26 03:15:25;;;;;;;2.17;0.40;;;;;;;13.06;62.15;100868.41;4835632;29;20022;-83
2021/08/26 03:17:51;;;;;;;1.95;0.50;;;;;;;12.95;62.19;100863.66;4833569;29;20046;-84
2021/08/26 03:20:17;;;;;;;0.68;0.30;;;;;;;13.04;62.51;100875.88;4849076;29;20026;-84
2021/08/26 03:22:42;;;;;;;0.70;0.40;;;;;;;13.12;62.94;100867.53;4849846;29;20044;-84
2021/08/26 03:25:08;;;;;;;2.05;0.40;;;;;;;13.07;62.64;100859.25;4848615;29;20022;-84
2021/08/26 03:27:33;;;;;;;0.63;0.47;;;;;;;13.08;63.14;100869.03;4834338;29;20022;-83
2021/08/26 03:29:59;;;;;;;3.33;0.50;;;;;;;12.97;63.21;100885.88;4848398;29;20089;-84
2021/08/26 03:32:24;;;;;;;1.20;0.50;;;;;;;12.95;62.50;100869.06;4842476;29;20034;-84
2021/08/26 03:34:50;;;;;;;0.40;0.40;;;;;;;12.95;63.06;100890.69;4867373;29;20030;-83
2021/08/26 03:37:16;;;;;;;0.60;0.40;;;;;;;12.73;63.13;100881.19;4860835;29;20045;-84
2021/08/26 03:39:41;;;;;;;1.10;0.50;;;;;;;12.77;64.00;100885.94;4845723;29;20067;-84
2021/08/26 03:42:08;;;;;;;1.70;0.32;;;;;;;12.81;63.67;100883.63;4836733;29;20030;-83
2021/08/26 03:44:34;;;;;;;0.52;0.40;;;;;;;12.78;64.58;100865.16;4848893;29;20058;-83
2021/08/26 03:46:59;;;;;;;1.05;0.50;;;;;;;12.97;63.53;100871.56;4847884;29;20025;-85
2021/08/26 03:49:28;;;;;;;4.18;0.60;;;;;;;12.84;63.16;100878.63;4848999;29;20068;-84
2021/08/26 03:51:54;;;;;;;0.60;0.50;;;;;;;12.95;62.79;100882.56;4847696;29;20010;-84
2021/08/26 03:54:19;;;;;;;1.48;0.45;;;;;;;12.84;63.82;100842.72;4833058;29;20133;-84
2021/08/26 03:56:44;;;;;;;0.40;0.35;;;;;;;12.96;63.90;100889.63;4863818;29;20056;-84
2021/08/26 03:59:13;;;;;;;2.25;0.43;;;;;;;13.00;63.96;100882.75;4851673;29;20042;-83
2021/08/26 04:01:39;;;;;;;1.40;0.50;;;;;;;12.88;64.29;100885.31;4856283;29;20032;-83
2021/08/26 04:04:06;;;;;;;1.15;0.50;;;;;;;12.84;64.18;100886.75;4835655;29;20106;-83
2021/08/26 04:06:32;;;;;;;0.60;0.40;;;;;;;12.84;64.29;100883.22;4853310;29;20126;-84
2021/08/26 04:08:57;;;;;;;1.00;0.50;;;;;;;12.79;63.95;100880.34;4847880;29;20034;-84
2021/08/26 04:11:23;;;;;;;2.35;0.55;;;;;;;12.80;64.49;100861.22;4847858;29;20021;-84
2021/08/26 04:13:48;;;;;;;1.98;0.60;;;;;;;12.96;64.15;100892.34;4855103;29;20105;-84
2021/08/26 04:16:14;;;;;;;2.30;0.65;;;;;;;12.98;63.56;100890.25;4865676;29;20041;-84
2021/08/26 04:18:39;;;;;;;0.55;0.50;;;;;;;13.01;63.57;100880.88;4862374;29;20014;-84
2021/08/26 04:21:05;;;;;;;0.80;0.50;;;;;;;12.87;63.99;100888.19;4836431;29;20054;-84
2021/08/26 04:23:30;;;;;;;1.58;0.70;;;;;;;13.02;64.03;100890.66;4864281;29;20035;-84
2021/08/26 04:25:56;;;;;;;0.80;0.50;;;;;;;13.04;64.53;100900.19;4830946;29;20035;-83
2021/08/26 04:28:21;;;;;;;0.80;0.30;;;;;;;12.97;64.13;100882.34;4865190;29;20006;-85
2021/08/26 04:30:46;;;;;;;0.75;0.55;;;;;;;13.02;65.45;100894.19;4851853;29;20022;-85
2021/08/26 04:33:12;;;;;;;0.73;0.50;;;;;;;12.91;64.91;100879.47;4848363;29;20082;-83
2021/08/26 04:35:37;;;;;;;1.10;0.57;;;;;;;12.61;64.96;100830.53;4829399;29;20045;-84
2021/08/26 04:38:02;;;;;;;2.95;0.50;;;;;;;12.85;65.25;100866.00;4827429;29;20059;-81
2021/08/26 04:40:29;;;;;;;2.30;0.60;;;;;;;12.98;64.77;100892.97;4855842;29;20030;-82
2021/08/26 04:42:55;;;;;;;1.83;0.70;;;;;;;13.06;65.91;100890.00;4815366;29;20026;-83
2021/08/26 04:45:20;;;;;;;0.68;0.47;;;;;;;12.98;65.73;100884.84;4838922;29;20006;-83
2021/08/26 04:47:47;;;;;;;2.30;0.65;;;;;;;13.04;65.31;100886.69;4862109;29;20029;-83
2021/08/26 04:50:12;;;;;;;1.30;0.60;;;;;;;13.05;65.54;100907.28;4864405;29;20018;-83
2021/08/26 04:52:38;;;;;;;3.03;0.68;;;;;;;13.12;66.61;100908.06;4858729;29;20021;-83
2021/08/26 04:55:03;;;;;;;1.50;0.52;;;;;;;12.68;65.90;100861.06;4848268;29;20093;-82
2021/08/26 04:57:29;;;;;;;2.33;0.60;;;;;;;13.17;66.33;100910.94;4852052;29;20030;-83
2021/08/26 04:59:54;;;;;;;0.98;0.50;;;;;;;13.00;64.62;100901.66;4830811;29;20058;-83
2021/08/26 05:02:20;;;;;;;0.50;0.50;;;;;;;13.16;64.88;100903.88;4847134;29;20085;-84
2021/08/26 05:04:47;;;;;;;1.60;0.50;;;;;;;13.09;65.10;100897.69;4845702;29;20027;-83
2021/08/26 05:07:12;;;;;;;2.50;0.60;;;;;;;12.95;65.53;100898.78;4845541;29;20035;-83
2021/08/26 05:09:37;;;;;;;1.95;0.52;;;;;;;13.04;66.53;100902.06;4834512;29;20106;-83
2021/08/26 05:12:05;;;;;;;2.33;0.43;;;;;;;13.11;66.62;100900.16;4846134;29;20040;-83
2021/08/26 05:14:31;;;;;;;1.02;0.47;;;;;;;13.16;64.98;100895.78;4848446;29;20038;-81
2021/08/26 05:16:58;;;;;;;1.15;0.70;;;;;;;13.19;66.18;100905.34;4859234;29;20058;-81
2021/08/26 05:19:24;;;;;;;1.30;0.52;;;;;;;13.20;66.37;100911.56;4864496;29;20037;-81
2021/08/26 05:21:49;;;;;;;0.70;0.50;;;;;;;13.11;66.84;100917.22;4845873;29;20035;-84
2021/08/26 05:24:15;;;;;;;0.60;0.50;;;;;;;12.85;65.99;100920.00;4840596;29;20029;-84
2021/08/26 05:26:40;;;;;;;0.68;0.50;;;;;;;12.99;66.40;100923.50;4835206;29;20042;-84
2021/08/26 05:29:20;;;;;;;0.82;0.32;;;;;;;11.95;66.88;100728.13;5134261;27;20425;-84
2021/08/26 05:31:46;;;;;;;0.65;0.50;;;;;;;11.75;67.08;100695.78;5134825;28;20046;-85
2021/08/26 05:34:12;;;;;;;1.13;0.60;;;;;;;11.99;65.74;100732.09;5135839;28;20007;-85
2021/08/26 05:36:38;;;;;;;2.67;0.52;;;;;;;11.84;66.28;100697.25;5118096;28;20038;-85
2021/08/26 05:39:04;;;;;;;0.82;0.60;;;;;;;12.97;65.90;100872.38;5135849;28;20024;-85
2021/08/26 05:41:29;;;;;;;2.72;0.93;;;;;;;11.87;66.77;100737.28;5117219;28;20008;-84
2021/08/26 05:43:55;;;;;;;1.77;0.77;;;;;;;11.85;66.96;100696.22;5135279;28;20053;-85
2021/08/26 05:46:23;;;;;;;1.10;0.60;;;;;;;12.04;67.05;100724.19;5117512;28;20032;-85
2021/08/26 05:48:49;;;;;;;0.60;0.52;;;;;;;12.87;66.47;100862.00;5142227;22;20048;-83
2021/08/26 05:51:18;;;;;;;1.60;0.60;;;;;;;12.01;66.23;100748.06;5113442;28;20035;-85
2021/08/26 05:53:45;;;;;;;2.13;0.68;;;;;;;11.79;66.37;100696.19;5090783;28;20040;-85
2021/08/26 05:56:13;;;;;;;0.73;0.50;;;;;;;13.04;67.06;100894.78;5338412;22;20041;-84
2021/08/26 05:58:39;;;;;;;1.65;0.50;;;;;;;12.09;66.81;100737.88;5072805;28;20036;-84
2021/08/26 06:01:08;;;;;;;0.63;0.50;;;;;;;13.03;67.47;100887.72;5083346;28;20106;-83
2021/08/26 06:03:34;;;;;;;1.05;0.50;;;;;;;11.86;67.01;100719.47;5076667;28;20016;-84
2021/08/26 06:06:04;;;;;;;0.82;0.60;;;;;;;11.98;68.01;100754.69;5090771;28;20017;-83
2021/08/26 06:08:31;;;;;;;4.22;0.40;;;;;;;11.84;67.74;100736.84;5093819;28;20012;-84
2021/08/26 06:10:57;;;;;;;0.65;0.40;;;;;;;12.28;67.63;100818.97;5073651;28;20017;-83
2021/08/26 06:13:22;;;;;;;1.10;0.50;;;;;;;12.16;68.25;100802.59;5057236;28;20023;-84
2021/08/26 06:15:48;;;;;;;1.25;0.40;;;;;;;12.26;67.94;100805.72;5089932;28;20024;-83
2021/08/26 06:18:15;;;;;;;1.63;0.50;;;;;;;13.14;67.50;100941.13;5094572;28;20016;-83
2021/08/26 06:20:42;;;;;;;1.55;0.50;;;;;;;12.07;67.16;100764.22;5092995;28;20035;-84
2021/08/26 06:23:08;;;;;;;2.70;0.55;;;;;;;12.12;67.33;100767.13;5093352;28;20021;-84
2021/08/26 06:25:35;;;;;;;0.80;0.60;;;;;;;12.41;68.30;100813.53;5091549;28;20190;-84
2021/08/26 07:03:50;;;;;;;1.15;0.40;;;;;;;13.49;67.08;100967.84;5888273;24;20051;31
2021/08/26 07:06:18;;;;;;;0.90;0.57;;;;;;;13.05;66.92;100934.28;4848042;29;20046;-85
2021/08/26 07:08:44;;;;;;;1.25;0.50;;;;;;;13.40;67.83;100974.50;4847630;29;20047;-85
2021/08/26 07:16:20;;;;;;;0.95;0.60;;;;;;;12.16;67.08;100754.06;5258773;23;20045;-84
2021/08/26 07:21:21;;;;;;;2.08;0.60;;;;;;;13.39;66.85;100984.50;5775862;23;20438;-85
2021/08/26 07:23:46;;;;;;;2.90;0.80;;;;;;;12.28;68.15;100835.97;4867563;29;20034;-84
2021/08/26 07:39:09;;;;;;;2.67;1.00;;;;;;;13.16;69.03;100946.28;5562615;23;20045;-79
2021/08/26 08:12:38;;;;;;;0.70;0.60;;;;;;;13.97;69.37;100991.75;5931910;23;20180;-76
2021/08/26 08:33:10;;;;;;;0.90;0.70;;;;;;;13.92;69.47;101026.72;5097536;23;20052;-86
2021/08/26 08:35:36;;;;;;;1.23;0.77;;;;;;;13.60;68.88;100929.28;4873755;29;20025;-86
2021/08/26 08:38:02;;;;;;;2.08;0.70;;;;;;;13.13;69.00;100858.38;4885233;29;20053;-85
2021/08/26 08:40:30;;;;;;;1.50;0.80;;;;;;;13.49;69.30;100884.03;5448454;23;20075;-85
2021/08/26 08:42:59;;;;;;;1.08;0.68;;;;;;;13.14;67.91;100803.34;4866611;29;20022;-86
2021/08/26 09:08:37;;;;;;;2.67;0.60;;;;;;;13.41;69.10;100895.09;5583983;23;20044;-86
2021/08/26 09:18:48;;;;;;;0.70;0.45;;;;;;;14.48;67.73;101063.03;4897246;24;20048;-84
2021/08/26 09:21:14;;;;;;;0.90;0.65;;;;;;;14.13;68.27;100982.25;4884841;29;20030;-84
2021/08/26 09:24:00;;;;;;;1.30;0.50;;;;;;;13.10;67.70;100806.66;4884058;29;20010;-85
2021/08/26 09:26:28;;;;;;;3.10;1.10;;;;;;;13.02;70.20;100842.03;4868028;29;20030;-83
2021/08/26 09:29:00;;;;;;;0.63;0.60;;;;;;;12.97;69.29;100871.56;4867159;29;20025;-84
2021/08/26 09:31:34;;;;;;;1.00;0.65;;;;;;;13.78;70.22;100949.41;4884409;29;20045;-85
2021/08/26 09:34:02;;;;;;;;;;;;;;;14.26;70.36;101033.59;5063499;23;20062;-85
2021/08/26 09:36:30;;;;;;;1.98;0.63;;;;;;;14.46;69.87;101060.53;4847242;29;19936;-83
2021/08/26 09:39:04;;;;;;;1.33;0.70;;;;;;;14.70;69.76;101036.44;4847084;29;20105;-83
2021/08/26 09:46:41;;;;;;;2.65;0.80;;;;;;;13.43;68.83;100857.03;5848605;23;20020;-83
2021/08/26 09:49:13;;;;;;;1.67;0.77;;;;;;;14.95;69.36;101039.97;4874045;29;20084;-84
2021/08/26 09:51:40;;;;;;;1.10;0.90;;;;;;;14.91;68.88;101033.34;4883924;29;20025;-82
2021/08/26 09:54:38;;;;;;;2.70;0.80;;;;;;;14.94;68.82;101041.03;4861675;29;20034;-82
2021/08/26 09:57:06;;;;;;;1.48;0.50;;;;;;;14.59;68.30;101015.50;4863995;29;20010;-85
2021/08/26 09:59:46;;;;;;;1.67;0.57;;;;;;;14.43;69.33;101052.84;5636104;23;20045;-85
2021/08/26 10:02:13;;;;;;;0.85;0.50;;;;;;;14.40;70.14;101028.91;4867592;29;20037;-84
2021/08/26 10:04:40;;;;;;;0.90;0.70;;;;;;;13.78;70.12;100965.63;5046119;23;20032;-83
2021/08/26 10:07:06;;;;;;;5.47;1.00;;;;;;;13.29;69.71;100859.81;5465236;23;20041;-81
2021/08/26 10:12:12;;;;;;;2.15;0.70;;;;;;;14.39;69.94;101039.97;5377413;23;21006;31
2021/08/26 10:14:40;;;;;;;1.23;0.90;;;;;;;13.10;70.71;100830.97;4814116;29;20035;-83
2021/08/26 15:15:23;;;;;;;3.30;0.80;;;;;;;15.39;69.35;101170.13;5906994;24;20247;31
2021/08/26 15:36:07;;;;;;;1.55;0.73;;;;;;;14.36;67.06;100991.69;5421185;24;19908;-83
2021/08/26 15:38:32;;;;;;;1.70;0.90;;;;;;;14.89;67.36;101069.84;4885762;29;20041;-83
2021/08/26 15:51:22;;;;;;;3.80;0.85;;;;;;;15.33;67.47;101114.91;5036334;23;20054;-84
2021/08/26 15:56:59;;;;;;;1.42;0.80;;;;;;;15.46;67.78;101131.06;5578274;24;20304;-83
2021/08/26 17:40:06;;;;;;;1.08;0.80;;;;;;;12.92;76.42;101040.47;5340704;24;20050;-85
2021/08/26 17:55:24;;;;;;;2.20;0.88;;;;;;;13.03;77.33;101065.19;5752270;23;20055;-85
2021/08/26 18:21:07;;;;;;;0.95;0.70;;;;;;;12.39;80.41;100994.56;4948032;24;20050;-83
2021/08/26 18:23:34;;;;;;;1.15;0.60;;;;;;;12.77;80.10;101039.03;4828160;29;20074;-82
2021/08/26 18:26:00;;;;;;;2.45;0.60;;;;;;;13.32;79.55;101147.72;4824917;29;20023;-80
2021/08/26 18:28:26;;;;;;;4.28;0.73;;;;;;;13.42;79.47;101156.25;4823656;29;20030;-83
2021/08/26 18:30:52;;;;;;;2.20;0.90;;;;;;;12.87;79.41;101061.88;4841051;29;20027;-81
2021/08/26 18:33:18;;;;;;;1.92;0.57;;;;;;;13.97;79.32;101232.53;4839421;29;20023;-82
2021/08/26 18:35:43;;;;;;;1.65;0.60;;;;;;;13.50;79.10;101166.84;4826322;29;20054;-81
2021/08/26 18:38:09;;;;;;;2.42;0.65;;;;;;;12.96;78.96;101085.97;4847109;29;20029;-82
2021/08/26 18:40:35;;;;;;;1.20;0.57;;;;;;;13.45;78.83;101147.72;4834401;29;20035;-83
2021/08/26 18:43:02;;;;;;;1.55;0.70;;;;;;;13.49;79.17;101176.00;4833773;29;20078;-82
2021/08/26 18:45:28;;;;;;;0.57;0.57;;;;;;;12.93;78.82;101073.72;4849800;29;20026;-82
2021/08/26 18:47:54;;;;;;;1.88;0.50;;;;;;;13.47;78.68;101163.72;4848107;29;20034;-83
2021/08/26 18:50:21;;;;;;;3.35;0.60;;;;;;;12.84;78.26;101045.25;4848935;29;20019;-83
2021/08/26 18:52:46;;;;;;;2.17;0.50;;;;;;;13.57;78.14;101164.13;4834229;29;20090;-84
2021/08/26 19:00:41;;;;;;;1.23;0.40;;;;;;;13.55;78.45;101160.81;5386325;24;20096;-81
2021/08/26 19:03:08;;;;;;;0.70;0.50;;;;;;;13.79;78.25;101210.69;4828867;29;20039;-82
2021/08/26 19:05:35;;;;;;;3.42;0.60;;;;;;;12.75;79.03;101016.78;4827467;29;20050;-83
2021/08/26 19:08:01;;;;;;;0.60;0.40;;;;;;;14.15;79.06;101242.69;4820502;29;20094;-82
2021/08/26 19:10:27;;;;;;;0.40;0.30;;;;;;;13.55;78.82;101185.97;4811804;29;20057;-78
2021/08/26 19:12:52;;;;;;;2.10;0.60;;;;;;;14.17;78.73;101262.25;4809495;29;20015;-82
2021/08/26 19:15:18;;;;;;;0.50;0.40;;;;;;;14.14;78.86;101240.16;4829303;29;20039;-81
2021/08/26 19:17:43;;;;;;;2.13;0.38;;;;;;;14.18;79.34;101255.78;4801783;29;20114;-81
2021/08/26 19:20:10;;;;;;;0.95;0.40;;;;;;;14.13;79.15;101257.47;4825970;29;20049;-81
2021/08/26 19:22:36;;;;;;;1.63;0.43;;;;;;;14.14;79.69;101256.41;4797525;29;20046;-81
2021/08/26 19:25:03;;;;;;;1.60;0.38;;;;;;;14.14;80.16;101267.22;4812313;29;20039;-82
2021/08/26 19:27:28;;;;;;;0.43;0.40;;;;;;;14.11;80.21;101276.63;4790849;30;20039;-82
2021/08/26 19:29:54;;;;;;;1.02;0.40;;;;;;;13.85;80.66;101245.03;4813092;29;20051;-84
2021/08/26 19:32:19;;;;;;;3.33;0.40;;;;;;;13.80;82.33;101288.91;4834194;29;20117;-84
2021/08/26 19:34:45;;;;;;;1.02;0.40;;;;;;;13.69;83.40;101269.78;4798662;29;20015;-83
2021/08/26 19:37:10;;;;;;;3.05;0.47;;;;;;;13.85;83.95;101281.03;4811673;29;20027;-83
2021/08/26 19:39:36;;;;;;;2.95;0.43;;;;;;;13.77;83.71;101285.78;4812708;29;20033;-83
2021/08/26 19:42:01;;;;;;;0.40;0.30;;;;;;;13.34;85.25;101224.00;4809759;29;20046;-82
2021/08/26 19:44:28;;;;;;;1.30;0.30;;;;;;;12.65;85.71;101122.53;4907220;24;20073;-82
2021/08/26 19:46:54;;;;;;;2.63;0.50;;;;;;;12.65;85.92;101136.84;4836454;29;20049;-82
2021/08/26 19:49:19;;;;;;;0.35;0.30;;;;;;;12.45;86.84;101109.81;4831985;29;20081;-83
2021/08/26 19:51:46;;;;;;;1.05;0.38;;;;;;;13.57;88.15;101307.41;4833017;29;20054;-84
2021/08/26 19:54:13;;;;;;;1.05;0.40;;;;;;;12.02;90.40;101105.69;4817125;29;20093;-83
2021/08/26 19:56:39;;;;;;;1.85;0.35;;;;;;;13.00;90.97;101271.75;4865770;24;20046;-82
2021/08/26 19:59:05;;;;;;;1.98;0.50;;;;;;;12.06;91.71;101131.25;4830317;29;20090;-82
2021/08/26 20:01:31;;;;;;;0.50;0.30;;;;;;;12.45;91.93;101166.50;4820494;29;20037;-82
2021/08/26 20:03:58;;;;;;;0.90;0.30;;;;;;;12.82;93.28;101236.38;4831998;29;20034;-82
2021/08/26 20:06:24;;;;;;;1.27;0.47;;;;;;;13.27;92.62;101305.09;4826579;29;20026;-82
2021/08/26 20:08:49;;;;;;;1.20;0.50;;;;;;;13.35;92.43;101290.56;4821291;29;20018;-82
2021/08/26 20:11:16;;;;;;;2.15;0.38;;;;;;;12.52;93.28;101198.06;4819316;29;20042;-82
2021/08/26 20:13:42;;;;;;;1.48;0.40;;;;;;;12.19;93.34;101134.00;4827046;29;20117;-82
2021/08/26 20:16:07;;;;;;;1.00;0.30;;;;;;;12.56;93.24;101180.44;4827206;29;20068;-81
2021/08/26 20:18:36;;;;;;;0.77;0.32;;;;;;;13.22;94.23;101288.63;4813297;29;20074;-82
2021/08/26 20:21:02;;;;;;;2.05;0.47;;;;;;;13.22;94.62;101314.84;4830003;29;20045;-82
2021/08/26 20:23:27;;;;;;;1.25;0.47;;;;;;;13.10;94.20;101272.19;4815109;29;20070;-83
2021/08/26 20:25:54;;;;;;;1.52;0.60;;;;;;;13.13;94.41;101276.34;4847489;29;20023;-82
2021/08/26 20:28:21;;;;;;;1.38;0.50;;;;;;;13.34;94.84;101289.75;4815768;29;20060;-83
2021/08/26 20:30:47;;;;;;;1.33;0.60;;;;;;;13.36;94.86;101308.44;4831453;29;20033;-83
2021/08/26 20:33:12;;;;;;;1.55;0.80;;;;;;;13.34;95.04;101283.47;4807970;29;20031;-80
2021/08/26 20:35:38;;;;;;;1.05;0.77;;;;;;;13.42;95.15;101294.09;4817202;29;20100;-81
2021/08/26 20:38:04;;;;;;;3.15;0.80;;;;;;;13.40;94.84;101282.66;4826159;29;20026;-79
2021/08/26 20:40:30;;;;;;;1.63;0.90;;;;;;;13.47;95.13;101294.31;4838095;29;20130;-81
2021/08/26 20:42:55;;;;;;;1.65;1.08;;;;;;;13.37;94.86;101280.38;4838119;29;20034;-82
2021/08/26 20:45:23;;;;;;;1.20;0.90;;;;;;;13.39;95.18;101273.72;4821563;29;20062;-81
2021/08/26 20:47:48;;;;;;;2.00;1.02;;;;;;;13.45;94.86;101274.78;4806707;29;20058;-82
2021/08/26 20:50:14;;;;;;;2.60;1.20;;;;;;;13.56;94.18;101301.19;4825752;29;20030;-83
2021/08/26 20:52:39;;;;;;;2.13;1.17;;;;;;;13.28;94.70;101270.81;4840631;29;20034;-82
2021/08/26 20:55:05;;;;;;;2.33;1.42;;;;;;;13.65;94.13;101301.00;4840778;29;20042;-82
2021/08/26 20:57:31;;;;;;;3.47;1.50;;;;;;;13.63;93.78;101291.19;4815126;29;20061;-82
2021/08/26 20:59:56;;;;;;;2.38;1.63;;;;;;;13.69;93.79;101299.53;4819225;29;20042;-82
2021/08/26 21:02:22;;;;;;;1.67;1.30;;;;;;;13.22;93.31;101217.56;4796170;29;20059;-82
2021/08/26 21:04:49;;;;;;;2.28;1.50;;;;;;;13.68;93.54;101300.59;4811020;29;20094;-82
2021/08/26 21:07:14;;;;;;;2.78;1.80;;;;;;;13.59;93.29;101281.84;4812632;29;20072;-82
2021/08/26 21:09:42;;;;;;;2.40;1.73;;;;;;;13.78;92.46;101311.81;4811294;29;20046;-82
2021/08/26 21:12:11;;;;;;;2.55;1.83;;;;;;;13.81;92.17;101311.41;4843496;29;20109;-81
2021/08/26 21:14:37;;;;;;;2.95;1.70;;;;;;;13.83;92.17;101298.50;4842032;29;20026;-82
2021/08/26 21:17:03;;;;;;;4.65;2.00;;;;;;;13.80;91.26;101283.50;4826230;29;20026;-83
2021/08/26 21:19:28;;;;;;;6.00;2.40;;;;;;;13.94;91.11;101313.25;4825888;29;20031;-83
2021/08/26 21:21:54;;;;;;;4.68;2.22;;;;;;;13.97;90.50;101304.72;4824867;29;20364;-82
2021/08/26 21:24:20;;;;;;;3.97;2.60;;;;;;;13.96;90.27;101330.94;4839444;29;20038;-83
2021/08/26 21:26:46;;;;;;;3.60;2.30;;;;;;;13.92;90.06;101285.59;4826998;29;20041;-82
2021/08/26 21:29:11;;;;;;;3.45;2.20;;;;;;;13.93;89.85;101296.19;4811086;29;20034;-82
2021/08/26 21:31:38;;;;;;;3.78;2.78;;;;;;;13.89;89.71;101289.53;4840537;29;20041;-81
2021/08/26 21:34:04;;;;;;;3.83;2.63;;;;;;;13.97;89.49;101326.38;4843068;29;20037;-82
2021/08/26 21:36:29;;;;;;;5.18;2.67;;;;;;;13.94;89.02;101306.00;4830904;29;20054;-83
2021/08/26 21:38:55;;;;;;;3.95;2.80;;;;;;;13.99;88.75;101308.88;4831417;29;20022;-83
2021/08/26 21:41:21;;;;;;;4.10;2.58;;;;;;;14.01;88.33;101344.69;4813095;29;20185;-83
2021/08/26 21:43:46;;;;;;;3.50;2.30;;;;;;;13.96;88.35;101308.47;4827427;29;20038;-83
2021/08/26 21:46:12;;;;;;;5.85;3.10;;;;;;;14.05;88.12;101337.81;4813235;29;20038;-82
2021/08/26 21:48:37;;;;;;;4.25;2.75;;;;;;;14.01;87.70;101304.13;4812519;29;20031;-82